NORTHEAST SUFFOLK  -  Special Weather Statement Special Weather Statement        NORTHERN NASSAU  -  Special Weather Statement Special Weather Statement        NORTHWEST SUFFOLK  -  Special Weather Statement Special Weather Statement        SOUTHEAST SUFFOLK  -  Special Weather Statement Special Weather Statement        SOUTHERN NASSAU  -  Special Weather Statement Special Weather Statement        SOUTHWEST SUFFOLK  -  Special Weather Statement Special Weather Statement      

Active alerts

Northern Nassau
  Details for Northern Nassau Special Weather Statement
Southern Nassau
  Details for Southern Nassau Special Weather Statement
Northwest Suffolk
  Details for Northwest Suffolk Special Weather Statement
Southwest Suffolk
  Details for Southwest Suffolk Special Weather Statement
Northeast Suffolk
  Details for Northeast Suffolk Special Weather Statement
Southeast Suffolk
  Details for Southeast Suffolk Special Weather Statement


WXM80 ListenWXM80 Stop

You find our weather info also at:

UK Metoffice

WeatherCloud

Weather Underground

Northeastern Weather Network

AWEKAS

Citizen Weather Observer Program (CWOP)

HAMweather, WeatherForYou, PWS Weather


Weather Underground History page Text

Daily Summary for October 8, 2017 Units:  Both    English   Metric
« Previous Day
Next Day »
Daily Weekly Monthly Yearly Custom
  High: Low: Average:
Temperature: 76.1 °F /  24.5 °C 71.2 °F /  21.8 °C 73.3 °F /  22.9 °C
Dew Point: 74.1 °F /  23.4 °C 67.8 °F /  19.9 °C 71.2 °F /  21.8 °C
Humidity: 97 % 88 % 93 %
Wind Speed: 6.2 mph /  10 km/h - 2.1 mph /  3.4 km/h
Wind Gust: 13.8 mph /  22.2 km/h - -
Wind:- - SSW
Pressure: 29.98 in /  1015.1 hPa 29.82 in /  1009.7 hPa -
Precipitation: 0.24 in /  6.1 mm    
Historical Graphs
 
 
Tabular Data for October 8, 2017
Time Temperature Dew Point Pressure Wind Wind Speed Wind Gust Humidity Rainfall Rate (Hourly)
00:01 71.3 °F /  21.8 °C 67.9 °F /  19.9 °C 29.98 in /  1015.1 hPa SSE 3.6 mph /  5.8 km/h 3.6 mph /  5.8 km/h 89 % 0.00 in /  0 mm
00:11 71.3 °F /  21.8 °C 67.9 °F /  19.9 °C 29.98 in /  1015.1 hPa South 1.7 mph /  2.7 km/h 4.0 mph /  6.4 km/h 89 % 0.00 in /  0 mm
00:16 71.3 °F /  21.8 °C 67.9 °F /  19.9 °C 29.98 in /  1015.1 hPa SSW 0.7 mph /  1.1 km/h 3.5 mph /  5.6 km/h 89 % 0.00 in /  0 mm
00:21 71.2 °F /  21.8 °C 67.8 °F /  19.9 °C 29.98 in /  1015.1 hPa South 1.6 mph /  2.6 km/h 3.5 mph /  5.6 km/h 89 % 0.00 in /  0 mm
00:31 71.3 °F /  21.8 °C 67.9 °F /  19.9 °C 29.97 in /  1014.8 hPa SSE 0.8 mph /  1.3 km/h 4.6 mph /  7.4 km/h 89 % 0.00 in /  0 mm
00:36 71.4 °F /  21.9 °C 68.0 °F /  20 °C 29.97 in /  1014.8 hPa South 2.4 mph /  3.9 km/h 4.6 mph /  7.4 km/h 89 % 0.00 in /  0 mm
00:41 71.4 °F /  21.9 °C 68.0 °F /  20 °C 29.96 in /  1014.4 hPa South 1.8 mph /  2.9 km/h 4.6 mph /  7.4 km/h 89 % 0.00 in /  0 mm
00:46 71.5 °F /  21.9 °C 68.1 °F /  20.1 °C 29.97 in /  1014.8 hPa SW 2.6 mph /  4.2 km/h 5.0 mph /  8 km/h 89 % 0.00 in /  0 mm
00:51 71.5 °F /  21.9 °C 68.1 °F /  20.1 °C 29.97 in /  1014.8 hPa SSW 1.2 mph /  1.9 km/h 3.5 mph /  5.6 km/h 89 % 0.00 in /  0 mm
00:56 71.5 °F /  21.9 °C 68.1 °F /  20.1 °C 29.97 in /  1014.8 hPa SE 2.3 mph /  3.7 km/h 4.0 mph /  6.4 km/h 89 % 0.00 in /  0 mm
01:01 71.6 °F /  22 °C 68.2 °F /  20.1 °C 29.97 in /  1014.8 hPa SSW 2.9 mph /  4.7 km/h 5.8 mph /  9.3 km/h 89 % 0.00 in /  0 mm
01:06 71.7 °F /  22.1 °C 68.3 °F /  20.2 °C 29.97 in /  1014.8 hPa SSW 2.3 mph /  3.7 km/h 4.6 mph /  7.4 km/h 89 % 0.00 in /  0 mm
01:11 71.8 °F /  22.1 °C 68.4 °F /  20.2 °C 29.97 in /  1014.8 hPa SSW 2.1 mph /  3.4 km/h 4.6 mph /  7.4 km/h 89 % 0.00 in /  0 mm
01:16 71.9 °F /  22.2 °C 68.5 °F /  20.3 °C 29.97 in /  1014.8 hPa SSW 2.6 mph /  4.2 km/h 5.0 mph /  8 km/h 89 % 0.00 in /  0 mm
01:21 71.9 °F /  22.2 °C 68.5 °F /  20.3 °C 29.97 in /  1014.8 hPa South 1.6 mph /  2.6 km/h 3.5 mph /  5.6 km/h 89 % 0.00 in /  0 mm
01:26 72.0 °F /  22.2 °C 68.2 °F /  20.1 °C 29.97 in /  1014.8 hPa South 1.9 mph /  3.1 km/h 3.5 mph /  5.6 km/h 88 % 0.00 in /  0 mm
01:31 72.1 °F /  22.3 °C 68.3 °F /  20.2 °C 29.97 in /  1014.8 hPa South 2.6 mph /  4.2 km/h 9.0 mph /  14.5 km/h 88 % 0.00 in /  0 mm
01:36 72.2 °F /  22.3 °C 68.4 °F /  20.2 °C 29.97 in /  1014.8 hPa SSW 4.4 mph /  7.1 km/h 11.0 mph /  17.7 km/h 88 % 0.00 in /  0 mm
01:41 72.2 °F /  22.3 °C 68.4 °F /  20.2 °C 29.97 in /  1014.8 hPa South 6.2 mph /  10 km/h 8.1 mph /  13 km/h 88 % 0.00 in /  0 mm
01:46 72.3 °F /  22.4 °C 68.5 °F /  20.3 °C 29.96 in /  1014.4 hPa SSW 2.3 mph /  3.7 km/h 6.9 mph /  11.1 km/h 88 % 0.00 in /  0 mm
01:51 72.4 °F /  22.4 °C 68.6 °F /  20.3 °C 29.97 in /  1014.8 hPa SW 4.7 mph /  7.6 km/h 6.9 mph /  11.1 km/h 88 % 0.00 in /  0 mm
01:56 72.4 °F /  22.4 °C 68.6 °F /  20.3 °C 29.97 in /  1014.8 hPa SSW 3.6 mph /  5.8 km/h 9.2 mph /  14.8 km/h 88 % 0.00 in /  0 mm
02:01 72.5 °F /  22.5 °C 68.7 °F /  20.4 °C 29.96 in /  1014.4 hPa SW 1.7 mph /  2.7 km/h 5.8 mph /  9.3 km/h 88 % 0.00 in /  0 mm
02:06 72.5 °F /  22.5 °C 68.7 °F /  20.4 °C 29.96 in /  1014.4 hPa SE 4.2 mph /  6.8 km/h 11.5 mph /  18.5 km/h 88 % 0.00 in /  0 mm
02:11 72.5 °F /  22.5 °C 68.7 °F /  20.4 °C 29.96 in /  1014.4 hPa South 3.4 mph /  5.5 km/h 6.9 mph /  11.1 km/h 88 % 0.00 in /  0 mm
02:16 72.5 °F /  22.5 °C 69.1 °F /  20.6 °C 29.96 in /  1014.4 hPa South 5.4 mph /  8.7 km/h 9.0 mph /  14.5 km/h 89 % 0.00 in /  0 mm
02:22 72.6 °F /  22.6 °C 69.2 °F /  20.7 °C 29.96 in /  1014.4 hPa SSE 2.1 mph /  3.4 km/h 6.0 mph /  9.7 km/h 89 % 0.00 in /  0 mm
02:27 72.5 °F /  22.5 °C 69.1 °F /  20.6 °C 29.95 in /  1014.1 hPa SSW 4.1 mph /  6.6 km/h 10.4 mph /  16.7 km/h 89 % 0.00 in /  0 mm
02:32 72.6 °F /  22.6 °C 69.2 °F /  20.7 °C 29.95 in /  1014.1 hPa SE 1.5 mph /  2.4 km/h 5.8 mph /  9.3 km/h 89 % 0.00 in /  0 mm
02:42 72.5 °F /  22.5 °C 69.1 °F /  20.6 °C 29.95 in /  1014.1 hPa ESE 3.6 mph /  5.8 km/h 4.6 mph /  7.4 km/h 89 % 0.00 in /  0 mm
02:47 72.5 °F /  22.5 °C 69.1 °F /  20.6 °C 29.95 in /  1014.1 hPa WSW 2.8 mph /  4.5 km/h 9.0 mph /  14.5 km/h 89 % 0.00 in /  0 mm
02:52 72.5 °F /  22.5 °C 69.1 °F /  20.6 °C 29.95 in /  1014.1 hPa ESE 1.4 mph /  2.3 km/h 3.5 mph /  5.6 km/h 89 % 0.00 in /  0 mm
02:57 72.5 °F /  22.5 °C 69.1 °F /  20.6 °C 29.94 in /  1013.8 hPa SSW 1.8 mph /  2.9 km/h 5.8 mph /  9.3 km/h 89 % 0.00 in /  0 mm
03:02 72.4 °F /  22.4 °C 69.0 °F /  20.6 °C 29.95 in /  1014.1 hPa SSW 3.8 mph /  6.1 km/h 6.9 mph /  11.1 km/h 89 % 0.00 in /  0 mm
03:07 72.4 °F /  22.4 °C 69.0 °F /  20.6 °C 29.95 in /  1014.1 hPa South 1.5 mph /  2.4 km/h 5.8 mph /  9.3 km/h 89 % 0.00 in /  0 mm
03:12 72.5 °F /  22.5 °C 69.1 °F /  20.6 °C 29.94 in /  1013.8 hPa SSE 3.4 mph /  5.5 km/h 9.2 mph /  14.8 km/h 89 % 0.00 in /  0 mm
03:17 72.5 °F /  22.5 °C 69.4 °F /  20.8 °C 29.95 in /  1014.1 hPa SSE 2.8 mph /  4.5 km/h 6.9 mph /  11.1 km/h 90 % 0.00 in /  0 mm
03:22 72.5 °F /  22.5 °C 69.4 °F /  20.8 °C 29.94 in /  1013.8 hPa SSW 3.9 mph /  6.3 km/h 6.9 mph /  11.1 km/h 90 % 0.00 in /  0 mm
03:27 72.4 °F /  22.4 °C 69.3 °F /  20.7 °C 29.94 in /  1013.8 hPa SE 2.8 mph /  4.5 km/h 9.2 mph /  14.8 km/h 90 % 0.00 in /  0 mm
03:32 72.4 °F /  22.4 °C 69.3 °F /  20.7 °C 29.94 in /  1013.8 hPa SSW 1.8 mph /  2.9 km/h 3.5 mph /  5.6 km/h 90 % 0.00 in /  0 mm
03:37 72.5 °F /  22.5 °C 69.4 °F /  20.8 °C 29.94 in /  1013.8 hPa SSW 2.6 mph /  4.2 km/h 11.5 mph /  18.5 km/h 90 % 0.00 in /  0 mm
03:42 72.5 °F /  22.5 °C 69.4 °F /  20.8 °C 29.94 in /  1013.8 hPa SSW 4.6 mph /  7.4 km/h 9.2 mph /  14.8 km/h 90 % 0.00 in /  0 mm
03:47 72.5 °F /  22.5 °C 69.4 °F /  20.8 °C 29.94 in /  1013.8 hPa SW 2.4 mph /  3.9 km/h 9.0 mph /  14.5 km/h 90 % 0.00 in /  0 mm
03:52 72.5 °F /  22.5 °C 69.4 °F /  20.8 °C 29.94 in /  1013.8 hPa SSW 3.7 mph /  6 km/h 5.8 mph /  9.3 km/h 90 % 0.00 in /  0 mm
03:57 72.6 °F /  22.6 °C 69.5 °F /  20.8 °C 29.93 in /  1013.4 hPa SE 4.0 mph /  6.4 km/h 5.8 mph /  9.3 km/h 90 % 0.00 in /  0 mm
04:02 72.6 °F /  22.6 °C 69.8 °F /  21 °C 29.93 in /  1013.4 hPa South 3.0 mph /  4.8 km/h 4.0 mph /  6.4 km/h 91 % 0.00 in /  0 mm
04:07 72.6 °F /  22.6 °C 69.8 °F /  21 °C 29.93 in /  1013.4 hPa South 4.8 mph /  7.7 km/h 5.8 mph /  9.3 km/h 91 % 0.00 in /  0 mm
04:13 72.6 °F /  22.6 °C 69.8 °F /  21 °C 29.93 in /  1013.4 hPa SE 3.0 mph /  4.8 km/h 4.6 mph /  7.4 km/h 91 % 0.00 in /  0 mm
04:18 72.5 °F /  22.5 °C 69.7 °F /  20.9 °C 29.93 in /  1013.4 hPa South 2.7 mph /  4.3 km/h 8.1 mph /  13 km/h 91 % 0.00 in /  0 mm
04:23 72.5 °F /  22.5 °C 69.7 °F /  20.9 °C 29.93 in /  1013.4 hPa SSE 3.1 mph /  5 km/h 8.1 mph /  13 km/h 91 % 0.00 in /  0 mm
04:28 72.4 °F /  22.4 °C 69.6 °F /  20.9 °C 29.93 in /  1013.4 hPa SSE 5.2 mph /  8.4 km/h 8.1 mph /  13 km/h 91 % 0.00 in /  0 mm
04:33 72.4 °F /  22.4 °C 69.6 °F /  20.9 °C 29.93 in /  1013.4 hPa SW 2.4 mph /  3.9 km/h 4.6 mph /  7.4 km/h 91 % 0.00 in /  0 mm
04:38 72.4 °F /  22.4 °C 69.6 °F /  20.9 °C 29.92 in /  1013.1 hPa South 2.9 mph /  4.7 km/h 6.0 mph /  9.7 km/h 91 % 0.00 in /  0 mm
04:43 72.4 °F /  22.4 °C 69.6 °F /  20.9 °C 29.92 in /  1013.1 hPa South 4.1 mph /  6.6 km/h 8.1 mph /  13 km/h 91 % 0.00 in /  0 mm
04:48 72.3 °F /  22.4 °C 69.8 °F /  21 °C 29.92 in /  1013.1 hPa SSW 4.9 mph /  7.9 km/h 8.1 mph /  13 km/h 92 % 0.00 in /  0 mm
04:58 72.3 °F /  22.4 °C 69.8 °F /  21 °C 29.92 in /  1013.1 hPa SW 1.4 mph /  2.3 km/h 3.5 mph /  5.6 km/h 92 % 0.00 in /  0 mm
05:03 72.2 °F /  22.3 °C 69.7 °F /  20.9 °C 29.92 in /  1013.1 hPa South 2.7 mph /  4.3 km/h 8.1 mph /  13 km/h 92 % 0.00 in /  0 mm
05:08 72.1 °F /  22.3 °C 69.6 °F /  20.9 °C 29.91 in /  1012.8 hPa SSE 2.8 mph /  4.5 km/h 4.6 mph /  7.4 km/h 92 % 0.00 in /  0 mm
05:13 72.1 °F /  22.3 °C 69.6 °F /  20.9 °C 29.91 in /  1012.8 hPa SSE 2.3 mph /  3.7 km/h 8.1 mph /  13 km/h 92 % 0.00 in /  0 mm
05:18 72.1 °F /  22.3 °C 69.6 °F /  20.9 °C 29.91 in /  1012.8 hPa South 3.2 mph /  5.1 km/h 5.8 mph /  9.3 km/h 92 % 0.00 in /  0 mm
05:23 72.1 °F /  22.3 °C 69.6 °F /  20.9 °C 29.91 in /  1012.8 hPa South 2.8 mph /  4.5 km/h 9.2 mph /  14.8 km/h 92 % 0.00 in /  0 mm
05:33 72.1 °F /  22.3 °C 69.6 °F /  20.9 °C 29.91 in /  1012.8 hPa SW 1.1 mph /  1.8 km/h 4.6 mph /  7.4 km/h 92 % 0.00 in /  0 mm
05:38 72.1 °F /  22.3 °C 69.6 °F /  20.9 °C 29.91 in /  1012.8 hPa South 4.4 mph /  7.1 km/h 11.5 mph /  18.5 km/h 92 % 0.00 in /  0 mm
05:43 72.1 °F /  22.3 °C 69.6 °F /  20.9 °C 29.91 in /  1012.8 hPa SSE 0.8 mph /  1.3 km/h 4.6 mph /  7.4 km/h 92 % 0.00 in /  0 mm
05:48 72.1 °F /  22.3 °C 69.6 °F /  20.9 °C 29.91 in /  1012.8 hPa South 2.9 mph /  4.7 km/h 6.9 mph /  11.1 km/h 92 % 0.00 in /  0 mm
05:53 72.1 °F /  22.3 °C 69.6 °F /  20.9 °C 29.91 in /  1012.8 hPa SSW 1.3 mph /  2.1 km/h 9.2 mph /  14.8 km/h 92 % 0.00 in /  0 mm
05:59 72.1 °F /  22.3 °C 69.6 °F /  20.9 °C 29.91 in /  1012.8 hPa SSW 2.4 mph /  3.9 km/h 5.8 mph /  9.3 km/h 92 % 0.00 in /  0 mm
06:04 72.2 °F /  22.3 °C 69.7 °F /  20.9 °C 29.91 in /  1012.8 hPa SW 2.2 mph /  3.5 km/h 5.8 mph /  9.3 km/h 92 % 0.00 in /  0 mm
06:09 72.2 °F /  22.3 °C 69.7 °F /  20.9 °C 29.91 in /  1012.8 hPa South 3.3 mph /  5.3 km/h 5.8 mph /  9.3 km/h 92 % 0.00 in /  0 mm
06:14 72.2 °F /  22.3 °C 69.7 °F /  20.9 °C 29.90 in /  1012.4 hPa South 2.0 mph /  3.2 km/h 4.6 mph /  7.4 km/h 92 % 0.00 in /  0 mm
06:19 72.2 °F /  22.3 °C 69.7 °F /  20.9 °C 29.90 in /  1012.4 hPa SE 3.6 mph /  5.8 km/h 8.1 mph /  13 km/h 92 % 0.00 in /  0 mm
06:24 72.2 °F /  22.3 °C 69.7 °F /  20.9 °C 29.91 in /  1012.8 hPa SSW 3.4 mph /  5.5 km/h 10.0 mph /  16.1 km/h 92 % 0.00 in /  0 mm
06:29 72.3 °F /  22.4 °C 69.5 °F /  20.8 °C 29.90 in /  1012.4 hPa SSW 5.4 mph /  8.7 km/h 11.5 mph /  18.5 km/h 91 % 0.00 in /  0 mm
06:34 72.3 °F /  22.4 °C 69.5 °F /  20.8 °C 29.90 in /  1012.4 hPa SSW 0.8 mph /  1.3 km/h 8.1 mph /  13 km/h 91 % 0.00 in /  0 mm
06:39 72.4 °F /  22.4 °C 69.6 °F /  20.9 °C 29.90 in /  1012.4 hPa SSW 0.7 mph /  1.1 km/h 5.8 mph /  9.3 km/h 91 % 0.00 in /  0 mm
06:44 72.4 °F /  22.4 °C 69.6 °F /  20.9 °C 29.89 in /  1012.1 hPa South 5.0 mph /  8 km/h 13.8 mph /  22.2 km/h 91 % 0.00 in /  0 mm
06:49 72.4 °F /  22.4 °C 69.6 °F /  20.9 °C 29.89 in /  1012.1 hPa SSE 1.2 mph /  1.9 km/h 5.8 mph /  9.3 km/h 91 % 0.00 in /  0 mm
06:54 72.4 °F /  22.4 °C 69.6 °F /  20.9 °C 29.89 in /  1012.1 hPa South 1.2 mph /  1.9 km/h 6.9 mph /  11.1 km/h 91 % 0.00 in /  0 mm
06:59 72.4 °F /  22.4 °C 69.6 °F /  20.9 °C 29.90 in /  1012.4 hPa SW 1.3 mph /  2.1 km/h 4.6 mph /  7.4 km/h 91 % 0.00 in /  0 mm
07:04 72.4 °F /  22.4 °C 69.6 °F /  20.9 °C 29.90 in /  1012.4 hPa SSE 3.6 mph /  5.8 km/h 9.2 mph /  14.8 km/h 91 % 0.00 in /  0 mm
07:09 72.4 °F /  22.4 °C 69.6 °F /  20.9 °C 29.90 in /  1012.4 hPa SW 2.0 mph /  3.2 km/h 5.0 mph /  8 km/h 91 % 0.00 in /  0 mm
07:14 72.4 °F /  22.4 °C 69.6 °F /  20.9 °C 29.90 in /  1012.4 hPa SE 3.0 mph /  4.8 km/h 4.6 mph /  7.4 km/h 91 % 0.00 in /  0 mm
07:19 72.4 °F /  22.4 °C 69.6 °F /  20.9 °C 29.90 in /  1012.4 hPa WSW 1.7 mph /  2.7 km/h 6.0 mph /  9.7 km/h 91 % 0.00 in /  0 mm
07:24 72.4 °F /  22.4 °C 69.6 °F /  20.9 °C 29.89 in /  1012.1 hPa SSW 4.8 mph /  7.7 km/h 11.0 mph /  17.7 km/h 91 % 0.00 in /  0 mm
07:29 72.4 °F /  22.4 °C 69.6 °F /  20.9 °C 29.89 in /  1012.1 hPa SE 3.7 mph /  6 km/h 6.9 mph /  11.1 km/h 91 % 0.00 in /  0 mm
07:34 72.4 °F /  22.4 °C 69.6 °F /  20.9 °C 29.89 in /  1012.1 hPa SSW 2.5 mph /  4 km/h 5.8 mph /  9.3 km/h 91 % 0.00 in /  0 mm
07:39 72.4 °F /  22.4 °C 69.6 °F /  20.9 °C 29.89 in /  1012.1 hPa SSE 2.7 mph /  4.3 km/h 4.6 mph /  7.4 km/h 91 % 0.00 in /  0 mm
07:40 72.4 °F /  22.4 °C 69.6 °F /  20.9 °C 29.89 in /  1012.1 hPa ESE 1.2 mph /  1.9 km/h 4.6 mph /  7.4 km/h 91 % 0.00 in /  0 mm
07:45 72.5 °F /  22.5 °C 69.7 °F /  20.9 °C 29.89 in /  1012.1 hPa SW 5.3 mph /  8.5 km/h 10.0 mph /  16.1 km/h 91 % 0.00 in /  0 mm
07:50 72.6 °F /  22.6 °C 69.8 °F /  21 °C 29.90 in /  1012.4 hPa SSW 3.6 mph /  5.8 km/h 8.0 mph /  12.9 km/h 91 % 0.00 in /  0 mm
07:55 72.6 °F /  22.6 °C 69.8 °F /  21 °C 29.89 in /  1012.1 hPa South 1.0 mph /  1.6 km/h 8.1 mph /  13 km/h 91 % 0.00 in /  0 mm
08:05 72.8 °F /  22.7 °C 70.0 °F /  21.1 °C 29.90 in /  1012.4 hPa SW 4.4 mph /  7.1 km/h 8.1 mph /  13 km/h 91 % 0.00 in /  0 mm
08:11 72.9 °F /  22.7 °C 70.1 °F /  21.2 °C 29.90 in /  1012.4 hPa SSW 2.8 mph /  4.5 km/h 9.2 mph /  14.8 km/h 91 % 0.00 in /  0 mm
08:16 73.0 °F /  22.8 °C 70.2 °F /  21.2 °C 29.90 in /  1012.4 hPa SSW 3.5 mph /  5.6 km/h 5.8 mph /  9.3 km/h 91 % 0.00 in /  0 mm
08:21 73.0 °F /  22.8 °C 70.2 °F /  21.2 °C 29.90 in /  1012.4 hPa SSW 2.9 mph /  4.7 km/h 6.9 mph /  11.1 km/h 91 % 0.00 in /  0 mm
08:26 73.1 °F /  22.8 °C 70.3 °F /  21.3 °C 29.89 in /  1012.1 hPa SSW 4.1 mph /  6.6 km/h 6.9 mph /  11.1 km/h 91 % 0.00 in /  0 mm
08:30 73.1 °F /  22.8 °C 70.3 °F /  21.3 °C 29.89 in /  1012.1 hPa South 2.7 mph /  4.3 km/h 5.8 mph /  9.3 km/h 91 % 0.00 in /  0 mm
08:35 73.1 °F /  22.8 °C 70.3 °F /  21.3 °C 29.89 in /  1012.1 hPa SSW 3.0 mph /  4.8 km/h 5.0 mph /  8 km/h 91 % 0.00 in /  0 mm
08:40 73.1 °F /  22.8 °C 70.3 °F /  21.3 °C 29.89 in /  1012.1 hPa SW 3.2 mph /  5.1 km/h 8.1 mph /  13 km/h 91 % 0.01 in /  0.25 mm
08:46 73.0 °F /  22.8 °C 70.2 °F /  21.2 °C 29.89 in /  1012.1 hPa South 6.0 mph /  9.7 km/h 12.0 mph /  19.3 km/h 91 % 0.00 in /  0 mm
08:51 72.8 °F /  22.7 °C 70.3 °F /  21.3 °C 29.89 in /  1012.1 hPa South 1.0 mph /  1.6 km/h 6.0 mph /  9.7 km/h 92 % 0.01 in /  0.25 mm
08:56 72.6 °F /  22.6 °C 70.2 °F /  21.2 °C 29.89 in /  1012.1 hPa SSW 5.0 mph /  8 km/h 9.0 mph /  14.5 km/h 92 % 0.00 in /  0 mm
09:01 72.4 °F /  22.4 °C 70.3 °F /  21.3 °C 29.88 in /  1011.7 hPa SSW 3.1 mph /  5 km/h 4.0 mph /  6.4 km/h 93 % 0.05 in /  1.27 mm
09:06 72.3 °F /  22.4 °C 70.2 °F /  21.2 °C 29.89 in /  1012.1 hPa South 3.2 mph /  5.1 km/h 3.5 mph /  5.6 km/h 93 % 0.06 in /  1.52 mm
09:11 72.1 °F /  22.3 °C 70.0 °F /  21.1 °C 29.88 in /  1011.7 hPa SSW 3.2 mph /  5.1 km/h 8.1 mph /  13 km/h 93 % 0.06 in /  1.52 mm
09:16 72.0 °F /  22.2 °C 70.2 °F /  21.2 °C 29.88 in /  1011.7 hPa SE 1.3 mph /  2.1 km/h 4.6 mph /  7.4 km/h 94 % 0.07 in /  1.78 mm
09:18 71.9 °F /  22.2 °C 70.1 °F /  21.2 °C 29.88 in /  1011.7 hPa South 5.2 mph /  8.4 km/h 6.9 mph /  11.1 km/h 94 % 0.07 in /  1.78 mm
09:23 71.8 °F /  22.1 °C 70.0 °F /  21.1 °C 29.89 in /  1012.1 hPa South 3.5 mph /  5.6 km/h 10.4 mph /  16.7 km/h 94 % 0.07 in /  1.78 mm
09:28 71.8 °F /  22.1 °C 70.0 °F /  21.1 °C 29.89 in /  1012.1 hPa SW 3.8 mph /  6.1 km/h 6.9 mph /  11.1 km/h 94 % 0.08 in /  2.03 mm
09:33 71.7 °F /  22.1 °C 69.9 °F /  21.1 °C 29.89 in /  1012.1 hPa South 3.9 mph /  6.3 km/h 8.1 mph /  13 km/h 94 % 0.09 in /  2.29 mm
09:38 71.6 °F /  22 °C 70.1 °F /  21.2 °C 29.89 in /  1012.1 hPa SSW 4.1 mph /  6.6 km/h 13.8 mph /  22.2 km/h 95 % 0.09 in /  2.29 mm
09:43 71.5 °F /  21.9 °C 70.0 °F /  21.1 °C 29.88 in /  1011.7 hPa SW 5.0 mph /  8 km/h 10.0 mph /  16.1 km/h 95 % 0.10 in /  2.54 mm
09:48 71.4 °F /  21.9 °C 69.9 °F /  21.1 °C 29.88 in /  1011.7 hPa South 4.2 mph /  6.8 km/h 8.1 mph /  13 km/h 95 % 0.10 in /  2.54 mm
09:53 71.3 °F /  21.8 °C 69.8 °F /  21 °C 29.88 in /  1011.7 hPa SSW 1.9 mph /  3.1 km/h 11.5 mph /  18.5 km/h 95 % 0.10 in /  2.54 mm
09:59 71.3 °F /  21.8 °C 69.8 °F /  21 °C 29.88 in /  1011.7 hPa South 3.4 mph /  5.5 km/h 5.8 mph /  9.3 km/h 95 % 0.10 in /  2.54 mm
10:04 71.3 °F /  21.8 °C 69.8 °F /  21 °C 29.87 in /  1011.4 hPa South 2.5 mph /  4 km/h 9.2 mph /  14.8 km/h 95 % 0.11 in /  2.79 mm
10:09 71.3 °F /  21.8 °C 70.1 °F /  21.2 °C 29.87 in /  1011.4 hPa SW 1.4 mph /  2.3 km/h 5.8 mph /  9.3 km/h 96 % 0.10 in /  2.54 mm
10:14 71.3 °F /  21.8 °C 70.1 °F /  21.2 °C 29.87 in /  1011.4 hPa South 3.1 mph /  5 km/h 6.9 mph /  11.1 km/h 96 % 0.11 in /  2.79 mm
10:19 71.4 °F /  21.9 °C 70.2 °F /  21.2 °C 29.87 in /  1011.4 hPa South 2.1 mph /  3.4 km/h 4.6 mph /  7.4 km/h 96 % 0.11 in /  2.79 mm
10:24 71.3 °F /  21.8 °C 70.1 °F /  21.2 °C 29.87 in /  1011.4 hPa SSW 3.6 mph /  5.8 km/h 8.1 mph /  13 km/h 96 % 0.12 in /  3.05 mm
10:34 71.3 °F /  21.8 °C 70.1 °F /  21.2 °C 29.87 in /  1011.4 hPa SSW 5.8 mph /  9.3 km/h 8.1 mph /  13 km/h 96 % 0.10 in /  2.54 mm
10:39 71.4 °F /  21.9 °C 70.2 °F /  21.2 °C 29.87 in /  1011.4 hPa SSW 2.3 mph /  3.7 km/h 4.0 mph /  6.4 km/h 96 % 0.11 in /  2.79 mm
10:44 71.5 °F /  21.9 °C 70.3 °F /  21.3 °C 29.87 in /  1011.4 hPa South 3.6 mph /  5.8 km/h 11.5 mph /  18.5 km/h 96 % 0.10 in /  2.54 mm
10:49 71.5 °F /  21.9 °C 70.3 °F /  21.3 °C 29.88 in /  1011.7 hPa SSW 5.6 mph /  9 km/h 12.7 mph /  20.4 km/h 96 % 0.10 in /  2.54 mm
10:54 71.6 °F /  22 °C 70.4 °F /  21.3 °C 29.88 in /  1011.7 hPa SSW 3.2 mph /  5.1 km/h 7.0 mph /  11.3 km/h 96 % 0.08 in /  2.03 mm
10:59 71.7 °F /  22.1 °C 70.5 °F /  21.4 °C 29.88 in /  1011.7 hPa WSW 2.7 mph /  4.3 km/h 6.9 mph /  11.1 km/h 96 % 0.07 in /  1.78 mm
11:05 71.7 °F /  22.1 °C 70.5 °F /  21.4 °C 29.88 in /  1011.7 hPa SSW 2.9 mph /  4.7 km/h 6.9 mph /  11.1 km/h 96 % 0.07 in /  1.78 mm
11:10 71.8 °F /  22.1 °C 70.9 °F /  21.6 °C 29.89 in /  1012.1 hPa WSW 2.9 mph /  4.7 km/h 6.9 mph /  11.1 km/h 97 % 0.06 in /  1.52 mm
11:15 71.8 °F /  22.1 °C 70.9 °F /  21.6 °C 29.89 in /  1012.1 hPa SW 2.3 mph /  3.7 km/h 4.0 mph /  6.4 km/h 97 % 0.06 in /  1.52 mm
11:20 71.9 °F /  22.2 °C 71.0 °F /  21.7 °C 29.88 in /  1011.7 hPa SSW 0.8 mph /  1.3 km/h 3.5 mph /  5.6 km/h 97 % 0.05 in /  1.27 mm
11:25 71.9 °F /  22.2 °C 71.0 °F /  21.7 °C 29.89 in /  1012.1 hPa SSW 3.4 mph /  5.5 km/h 9.2 mph /  14.8 km/h 97 % 0.04 in /  1.02 mm
11:30 71.9 °F /  22.2 °C 71.0 °F /  21.7 °C 29.89 in /  1012.1 hPa SW 1.3 mph /  2.1 km/h 6.9 mph /  11.1 km/h 97 % 0.03 in /  0.76 mm
11:35 72.0 °F /  22.2 °C 71.1 °F /  21.7 °C 29.88 in /  1011.7 hPa South 3.7 mph /  6 km/h 8.0 mph /  12.9 km/h 97 % 0.03 in /  0.76 mm
11:40 72.0 °F /  22.2 °C 71.1 °F /  21.7 °C 29.88 in /  1011.7 hPa South 1.2 mph /  1.9 km/h 4.6 mph /  7.4 km/h 97 % 0.02 in /  0.51 mm
11:45 72.0 °F /  22.2 °C 70.8 °F /  21.6 °C 29.88 in /  1011.7 hPa SSW 2.4 mph /  3.9 km/h 6.0 mph /  9.7 km/h 96 % 0.02 in /  0.51 mm
11:50 72.1 °F /  22.3 °C 70.9 °F /  21.6 °C 29.88 in /  1011.7 hPa SSW 2.0 mph /  3.2 km/h 5.8 mph /  9.3 km/h 96 % 0.01 in /  0.25 mm
11:55 72.1 °F /  22.3 °C 70.9 °F /  21.6 °C 29.88 in /  1011.7 hPa SW 1.9 mph /  3.1 km/h 9.0 mph /  14.5 km/h 96 % 0.01 in /  0.25 mm
12:00 72.2 °F /  22.3 °C 71.0 °F /  21.7 °C 29.88 in /  1011.7 hPa SSW 2.8 mph /  4.5 km/h 8.0 mph /  12.9 km/h 96 % 0.01 in /  0.25 mm
12:05 72.2 °F /  22.3 °C 71.3 °F /  21.8 °C 29.88 in /  1011.7 hPa SW 1.4 mph /  2.3 km/h 6.9 mph /  11.1 km/h 97 % 0.00 in /  0 mm
12:10 72.4 °F /  22.4 °C 71.5 °F /  21.9 °C 29.88 in /  1011.7 hPa NNW 0.9 mph /  1.4 km/h 4.6 mph /  7.4 km/h 97 % 0.00 in /  0 mm
12:15 72.5 °F /  22.5 °C 71.6 °F /  22 °C 29.88 in /  1011.7 hPa SSW 0.6 mph /  1 km/h 2.3 mph /  3.7 km/h 97 % 0.01 in /  0.25 mm
12:20 72.6 °F /  22.6 °C 71.7 °F /  22.1 °C 29.88 in /  1011.7 hPa West 1.7 mph /  2.7 km/h 5.0 mph /  8 km/h 97 % 0.01 in /  0.25 mm
12:25 72.8 °F /  22.7 °C 71.9 °F /  22.2 °C 29.88 in /  1011.7 hPa SSW 2.8 mph /  4.5 km/h 5.8 mph /  9.3 km/h 97 % 0.01 in /  0.25 mm
12:30 72.9 °F /  22.7 °C 72.0 °F /  22.2 °C 29.88 in /  1011.7 hPa SSW 3.8 mph /  6.1 km/h 6.0 mph /  9.7 km/h 97 % 0.01 in /  0.25 mm
12:40 73.2 °F /  22.9 °C 72.3 °F /  22.4 °C 29.88 in /  1011.7 hPa South 0.6 mph /  1 km/h 3.0 mph /  4.8 km/h 97 % 0.01 in /  0.25 mm
12:45 73.4 °F /  23 °C 72.5 °F /  22.5 °C 29.88 in /  1011.7 hPa SSE 0.2 mph /  0.3 km/h 2.3 mph /  3.7 km/h 97 % 0.01 in /  0.25 mm
12:50 73.5 °F /  23.1 °C 72.6 °F /  22.6 °C 29.89 in /  1012.1 hPa South 1.4 mph /  2.3 km/h 3.5 mph /  5.6 km/h 97 % 0.01 in /  0.25 mm
12:55 73.7 °F /  23.2 °C 72.8 °F /  22.7 °C 29.88 in /  1011.7 hPa SSW 3.7 mph /  6 km/h 4.6 mph /  7.4 km/h 97 % 0.01 in /  0.25 mm
13:00 73.8 °F /  23.2 °C 72.9 °F /  22.7 °C 29.88 in /  1011.7 hPa SSW 3.8 mph /  6.1 km/h 5.0 mph /  8 km/h 97 % 0.01 in /  0.25 mm
13:06 73.9 °F /  23.3 °C 73.0 °F /  22.8 °C 29.88 in /  1011.7 hPa SSW 2.0 mph /  3.2 km/h 7.0 mph /  11.3 km/h 97 % 0.00 in /  0 mm
13:11 74.0 °F /  23.3 °C 73.1 °F /  22.8 °C 29.88 in /  1011.7 hPa SSW 1.0 mph /  1.6 km/h 12.0 mph /  19.3 km/h 97 % 0.00 in /  0 mm
13:21 74.2 °F /  23.4 °C 73.0 °F /  22.8 °C 29.88 in /  1011.7 hPa SSW 2.8 mph /  4.5 km/h 5.8 mph /  9.3 km/h 96 % 0.00 in /  0 mm
13:26 74.2 °F /  23.4 °C 73.0 °F /  22.8 °C 29.87 in /  1011.4 hPa SSE 0.5 mph /  0.8 km/h 3.5 mph /  5.6 km/h 96 % 0.00 in /  0 mm
13:31 74.3 °F /  23.5 °C 73.1 °F /  22.8 °C 29.87 in /  1011.4 hPa SSE 1.6 mph /  2.6 km/h 4.6 mph /  7.4 km/h 96 % 0.00 in /  0 mm
13:36 74.4 °F /  23.6 °C 73.2 °F /  22.9 °C 29.87 in /  1011.4 hPa SSE 0.6 mph /  1 km/h 3.5 mph /  5.6 km/h 96 % 0.00 in /  0 mm
13:41 74.4 °F /  23.6 °C 73.2 °F /  22.9 °C 29.86 in /  1011.1 hPa South 0.3 mph /  0.5 km/h 1.2 mph /  1.9 km/h 96 % 0.00 in /  0 mm
13:46 74.4 °F /  23.6 °C 73.2 °F /  22.9 °C 29.86 in /  1011.1 hPa South 1.8 mph /  2.9 km/h 3.5 mph /  5.6 km/h 96 % 0.00 in /  0 mm
13:51 74.6 °F /  23.7 °C 73.4 °F /  23 °C 29.86 in /  1011.1 hPa SSW 2.0 mph /  3.2 km/h 3.5 mph /  5.6 km/h 96 % 0.00 in /  0 mm
13:56 74.7 °F /  23.7 °C 73.5 °F /  23.1 °C 29.86 in /  1011.1 hPa SW 1.7 mph /  2.7 km/h 5.8 mph /  9.3 km/h 96 % 0.00 in /  0 mm
14:01 74.7 °F /  23.7 °C 73.2 °F /  22.9 °C 29.86 in /  1011.1 hPa SSW 0.9 mph /  1.4 km/h 3.5 mph /  5.6 km/h 95 % 0.00 in /  0 mm
14:06 74.8 °F /  23.8 °C 73.3 °F /  22.9 °C 29.86 in /  1011.1 hPa SE 0.8 mph /  1.3 km/h 5.8 mph /  9.3 km/h 95 % 0.00 in /  0 mm
14:11 74.8 °F /  23.8 °C 73.3 °F /  22.9 °C 29.86 in /  1011.1 hPa SSW 0.6 mph /  1 km/h 2.3 mph /  3.7 km/h 95 % 0.00 in /  0 mm
14:16 74.8 °F /  23.8 °C 73.3 °F /  22.9 °C 29.86 in /  1011.1 hPa SSW 1.3 mph /  2.1 km/h 6.9 mph /  11.1 km/h 95 % 0.00 in /  0 mm
14:21 74.8 °F /  23.8 °C 73.3 °F /  22.9 °C 29.87 in /  1011.4 hPa SSW 3.1 mph /  5 km/h 5.8 mph /  9.3 km/h 95 % 0.00 in /  0 mm
14:26 74.9 °F /  23.8 °C 73.4 °F /  23 °C 29.86 in /  1011.1 hPa SW 2.3 mph /  3.7 km/h 5.8 mph /  9.3 km/h 95 % 0.00 in /  0 mm
14:31 75.0 °F /  23.9 °C 73.5 °F /  23.1 °C 29.86 in /  1011.1 hPa South 4.4 mph /  7.1 km/h 8.0 mph /  12.9 km/h 95 % 0.00 in /  0 mm
14:36 75.1 °F /  23.9 °C 73.6 °F /  23.1 °C 29.86 in /  1011.1 hPa SSW 1.4 mph /  2.3 km/h 5.0 mph /  8 km/h 95 % 0.00 in /  0 mm
14:41 75.2 °F /  24 °C 73.7 °F /  23.2 °C 29.86 in /  1011.1 hPa SW 1.3 mph /  2.1 km/h 5.0 mph /  8 km/h 95 % 0.00 in /  0 mm
14:46 75.4 °F /  24.1 °C 73.9 °F /  23.3 °C 29.86 in /  1011.1 hPa South 2.9 mph /  4.7 km/h 8.1 mph /  13 km/h 95 % 0.00 in /  0 mm
14:51 75.5 °F /  24.2 °C 74.0 °F /  23.3 °C 29.86 in /  1011.1 hPa South 2.0 mph /  3.2 km/h 4.6 mph /  7.4 km/h 95 % 0.00 in /  0 mm
14:56 75.6 °F /  24.2 °C 74.1 °F /  23.4 °C 29.86 in /  1011.1 hPa SSW 3.7 mph /  6 km/h 6.9 mph /  11.1 km/h 95 % 0.00 in /  0 mm
15:01 75.8 °F /  24.3 °C 73.9 °F /  23.3 °C 29.86 in /  1011.1 hPa WSW 1.7 mph /  2.7 km/h 3.0 mph /  4.8 km/h 94 % 0.00 in /  0 mm
15:06 75.9 °F /  24.4 °C 74.0 °F /  23.3 °C 29.86 in /  1011.1 hPa SW 3.1 mph /  5 km/h 5.0 mph /  8 km/h 94 % 0.00 in /  0 mm
15:11 76.0 °F /  24.4 °C 73.8 °F /  23.2 °C 29.87 in /  1011.4 hPa South 0.1 mph /  0.2 km/h 3.5 mph /  5.6 km/h 93 % 0.00 in /  0 mm
15:16 76.0 °F /  24.4 °C 73.8 °F /  23.2 °C 29.86 in /  1011.1 hPa WSW 2.5 mph /  4 km/h 3.5 mph /  5.6 km/h 93 % 0.00 in /  0 mm
15:21 76.1 °F /  24.5 °C 73.9 °F /  23.3 °C 29.87 in /  1011.4 hPa SSW 0.7 mph /  1.1 km/h 3.5 mph /  5.6 km/h 93 % 0.00 in /  0 mm
15:26 76.0 °F /  24.4 °C 73.8 °F /  23.2 °C 29.86 in /  1011.1 hPa South 1.1 mph /  1.8 km/h 4.0 mph /  6.4 km/h 93 % 0.00 in /  0 mm
15:31 76.0 °F /  24.4 °C 73.5 °F /  23.1 °C 29.86 in /  1011.1 hPa SSW 2.5 mph /  4 km/h 3.5 mph /  5.6 km/h 92 % 0.00 in /  0 mm
15:36 76.0 °F /  24.4 °C 73.5 °F /  23.1 °C 29.86 in /  1011.1 hPa SSW 2.8 mph /  4.5 km/h 5.0 mph /  8 km/h 92 % 0.00 in /  0 mm
15:41 76.0 °F /  24.4 °C 73.5 °F /  23.1 °C 29.86 in /  1011.1 hPa SW 0.4 mph /  0.6 km/h 3.5 mph /  5.6 km/h 92 % 0.00 in /  0 mm
15:46 76.0 °F /  24.4 °C 73.5 °F /  23.1 °C 29.86 in /  1011.1 hPa SSW 2.8 mph /  4.5 km/h 4.0 mph /  6.4 km/h 92 % 0.00 in /  0 mm
15:51 76.0 °F /  24.4 °C 73.5 °F /  23.1 °C 29.87 in /  1011.4 hPa WSW 1.7 mph /  2.7 km/h 4.6 mph /  7.4 km/h 92 % 0.00 in /  0 mm
15:56 76.0 °F /  24.4 °C 73.5 °F /  23.1 °C 29.86 in /  1011.1 hPa SSW 2.5 mph /  4 km/h 4.6 mph /  7.4 km/h 92 % 0.00 in /  0 mm
16:01 76.0 °F /  24.4 °C 73.5 °F /  23.1 °C 29.86 in /  1011.1 hPa ESE 1.2 mph /  1.9 km/h 3.5 mph /  5.6 km/h 92 % 0.00 in /  0 mm
16:06 76.0 °F /  24.4 °C 73.5 °F /  23.1 °C 29.86 in /  1011.1 hPa SSW 2.7 mph /  4.3 km/h 5.8 mph /  9.3 km/h 92 % 0.00 in /  0 mm
16:11 75.9 °F /  24.4 °C 73.4 °F /  23 °C 29.86 in /  1011.1 hPa South 0.8 mph /  1.3 km/h 9.2 mph /  14.8 km/h 92 % 0.00 in /  0 mm
16:16 75.9 °F /  24.4 °C 73.4 °F /  23 °C 29.86 in /  1011.1 hPa SSW 1.2 mph /  1.9 km/h 3.5 mph /  5.6 km/h 92 % 0.00 in /  0 mm
16:22 75.8 °F /  24.3 °C 73.3 °F /  22.9 °C 29.86 in /  1011.1 hPa SW 0.1 mph /  0.2 km/h 2.3 mph /  3.7 km/h 92 % 0.00 in /  0 mm
16:27 75.8 °F /  24.3 °C 73.3 °F /  22.9 °C 29.86 in /  1011.1 hPa SSW 0.4 mph /  0.6 km/h 3.5 mph /  5.6 km/h 92 % 0.00 in /  0 mm
16:32 75.7 °F /  24.3 °C 73.2 °F /  22.9 °C 29.86 in /  1011.1 hPa SSW 2.4 mph /  3.9 km/h 6.9 mph /  11.1 km/h 92 % 0.00 in /  0 mm
16:37 75.7 °F /  24.3 °C 73.2 °F /  22.9 °C 29.85 in /  1010.7 hPa SSW 2.5 mph /  4 km/h 5.8 mph /  9.3 km/h 92 % 0.00 in /  0 mm
16:42 75.6 °F /  24.2 °C 73.1 °F /  22.8 °C 29.86 in /  1011.1 hPa SW 2.4 mph /  3.9 km/h 3.5 mph /  5.6 km/h 92 % 0.00 in /  0 mm
16:47 75.6 °F /  24.2 °C 73.1 °F /  22.8 °C 29.86 in /  1011.1 hPa SSW 2.7 mph /  4.3 km/h 4.6 mph /  7.4 km/h 92 % 0.00 in /  0 mm
16:52 75.5 °F /  24.2 °C 73.0 °F /  22.8 °C 29.86 in /  1011.1 hPa SSW 1.2 mph /  1.9 km/h 3.5 mph /  5.6 km/h 92 % 0.00 in /  0 mm
16:57 75.5 °F /  24.2 °C 73.0 °F /  22.8 °C 29.86 in /  1011.1 hPa SSW 0.8 mph /  1.3 km/h 2.3 mph /  3.7 km/h 92 % 0.00 in /  0 mm
17:02 75.4 °F /  24.1 °C 72.9 °F /  22.7 °C 29.86 in /  1011.1 hPa SSW 1.6 mph /  2.6 km/h 3.5 mph /  5.6 km/h 92 % 0.00 in /  0 mm
17:07 75.3 °F /  24.1 °C 72.8 °F /  22.7 °C 29.86 in /  1011.1 hPa SSE 0.8 mph /  1.3 km/h 3.5 mph /  5.6 km/h 92 % 0.00 in /  0 mm
17:12 75.3 °F /  24.1 °C 72.8 °F /  22.7 °C 29.86 in /  1011.1 hPa South 0.3 mph /  0.5 km/h 3.5 mph /  5.6 km/h 92 % 0.00 in /  0 mm
17:17 75.3 °F /  24.1 °C 73.1 °F /  22.8 °C 29.86 in /  1011.1 hPa SSW 1.2 mph /  1.9 km/h 3.5 mph /  5.6 km/h 93 % 0.00 in /  0 mm
17:22 75.2 °F /  24 °C 73.0 °F /  22.8 °C 29.87 in /  1011.4 hPa SSW 1.2 mph /  1.9 km/h 5.8 mph /  9.3 km/h 93 % 0.00 in /  0 mm
17:27 75.2 °F /  24 °C 73.0 °F /  22.8 °C 29.87 in /  1011.4 hPa SW 0.7 mph /  1.1 km/h 2.0 mph /  3.2 km/h 93 % 0.00 in /  0 mm
17:32 75.1 °F /  23.9 °C 72.9 °F /  22.7 °C 29.87 in /  1011.4 hPa SSW 1.7 mph /  2.7 km/h 4.0 mph /  6.4 km/h 93 % 0.00 in /  0 mm
17:37 75.1 °F /  23.9 °C 72.9 °F /  22.7 °C 29.87 in /  1011.4 hPa SE 2.1 mph /  3.4 km/h 3.5 mph /  5.6 km/h 93 % 0.00 in /  0 mm
17:42 75.0 °F /  23.9 °C 72.8 °F /  22.7 °C 29.88 in /  1011.7 hPa South 1.0 mph /  1.6 km/h 3.5 mph /  5.6 km/h 93 % 0.00 in /  0 mm
17:47 75.0 °F /  23.9 °C 72.8 °F /  22.7 °C 29.88 in /  1011.7 hPa Calm   2.3 mph /  3.7 km/h 93 % 0.00 in /  0 mm
17:53 74.9 °F /  23.8 °C 72.7 °F /  22.6 °C 29.88 in /  1011.7 hPa West 0.8 mph /  1.3 km/h 1.2 mph /  1.9 km/h 93 % 0.00 in /  0 mm
17:58 74.9 °F /  23.8 °C 72.7 °F /  22.6 °C 29.88 in /  1011.7 hPa West 2.8 mph /  4.5 km/h 6.9 mph /  11.1 km/h 93 % 0.00 in /  0 mm
18:03 74.8 °F /  23.8 °C 72.6 °F /  22.6 °C 29.88 in /  1011.7 hPa SSW 2.2 mph /  3.5 km/h 4.6 mph /  7.4 km/h 93 % 0.00 in /  0 mm
18:08 74.8 °F /  23.8 °C 72.6 °F /  22.6 °C 29.89 in /  1012.1 hPa WSW 0.5 mph /  0.8 km/h 2.3 mph /  3.7 km/h 93 % 0.00 in /  0 mm
18:13 74.7 °F /  23.7 °C 72.5 °F /  22.5 °C 29.89 in /  1012.1 hPa SSW 0.9 mph /  1.4 km/h 3.5 mph /  5.6 km/h 93 % 0.00 in /  0 mm
18:18 74.6 °F /  23.7 °C 72.4 °F /  22.4 °C 29.89 in /  1012.1 hPa SSW 2.1 mph /  3.4 km/h 3.5 mph /  5.6 km/h 93 % 0.00 in /  0 mm
18:23 74.6 °F /  23.7 °C 72.4 °F /  22.4 °C 29.89 in /  1012.1 hPa SW 0.3 mph /  0.5 km/h 1.2 mph /  1.9 km/h 93 % 0.00 in /  0 mm
18:28 74.5 °F /  23.6 °C 72.3 °F /  22.4 °C 29.90 in /  1012.4 hPa SW 0.6 mph /  1 km/h 3.5 mph /  5.6 km/h 93 % 0.00 in /  0 mm
18:33 74.4 °F /  23.6 °C 72.6 °F /  22.6 °C 29.90 in /  1012.4 hPa SW 0.4 mph /  0.6 km/h 2.3 mph /  3.7 km/h 94 % 0.00 in /  0 mm
18:38 74.4 °F /  23.6 °C 72.6 °F /  22.6 °C 29.90 in /  1012.4 hPa SW 1.0 mph /  1.6 km/h 2.3 mph /  3.7 km/h 94 % 0.00 in /  0 mm
18:43 74.3 °F /  23.5 °C 72.5 °F /  22.5 °C 29.90 in /  1012.4 hPa SW 0.6 mph /  1 km/h 3.5 mph /  5.6 km/h 94 % 0.00 in /  0 mm
18:48 74.2 °F /  23.4 °C 72.4 °F /  22.4 °C 29.90 in /  1012.4 hPa SW 0.7 mph /  1.1 km/h 3.5 mph /  5.6 km/h 94 % 0.00 in /  0 mm
18:53 74.2 °F /  23.4 °C 72.4 °F /  22.4 °C 29.90 in /  1012.4 hPa SW 0.1 mph /  0.2 km/h 3.5 mph /  5.6 km/h 94 % 0.00 in /  0 mm
18:55 74.2 °F /  23.4 °C 72.4 °F /  22.4 °C 29.90 in /  1012.4 hPa SSW 1.3 mph /  2.1 km/h 3.5 mph /  5.6 km/h 94 % 0.00 in /  0 mm
19:00 74.1 °F /  23.4 °C 72.3 °F /  22.4 °C 29.90 in /  1012.4 hPa SSW 2.0 mph /  3.2 km/h 4.6 mph /  7.4 km/h 94 % 0.00 in /  0 mm
19:05 74.1 °F /  23.4 °C 72.3 °F /  22.4 °C 29.90 in /  1012.4 hPa West 1.3 mph /  2.1 km/h 3.5 mph /  5.6 km/h 94 % 0.00 in /  0 mm
19:15 74.0 °F /  23.3 °C 72.2 °F /  22.3 °C 29.91 in /  1012.8 hPa SW 0.3 mph /  0.5 km/h 1.2 mph /  1.9 km/h 94 % 0.00 in /  0 mm
19:20 73.9 °F /  23.3 °C 72.1 °F /  22.3 °C 29.91 in /  1012.8 hPa SSW 1.9 mph /  3.1 km/h 4.0 mph /  6.4 km/h 94 % 0.00 in /  0 mm
19:30 73.9 °F /  23.3 °C 72.1 °F /  22.3 °C 29.91 in /  1012.8 hPa WSW 0.9 mph /  1.4 km/h 3.5 mph /  5.6 km/h 94 % 0.00 in /  0 mm
19:35 73.9 °F /  23.3 °C 72.4 °F /  22.4 °C 29.91 in /  1012.8 hPa SW 0.9 mph /  1.4 km/h 2.3 mph /  3.7 km/h 95 % 0.00 in /  0 mm
19:40 73.9 °F /  23.3 °C 72.4 °F /  22.4 °C 29.91 in /  1012.8 hPa SW 0.5 mph /  0.8 km/h 3.5 mph /  5.6 km/h 95 % 0.00 in /  0 mm
19:50 73.8 °F /  23.2 °C 72.3 °F /  22.4 °C 29.91 in /  1012.8 hPa SW 1.1 mph /  1.8 km/h 3.5 mph /  5.6 km/h 95 % 0.00 in /  0 mm
19:55 73.8 °F /  23.2 °C 72.3 °F /  22.4 °C 29.91 in /  1012.8 hPa South 2.1 mph /  3.4 km/h 3.5 mph /  5.6 km/h 95 % 0.00 in /  0 mm
20:00 73.8 °F /  23.2 °C 72.3 °F /  22.4 °C 29.91 in /  1012.8 hPa WSW 0.9 mph /  1.4 km/h 3.5 mph /  5.6 km/h 95 % 0.00 in /  0 mm
20:05 73.8 °F /  23.2 °C 72.3 °F /  22.4 °C 29.91 in /  1012.8 hPa WSW 0.6 mph /  1 km/h 2.3 mph /  3.7 km/h 95 % 0.00 in /  0 mm
20:10 73.8 °F /  23.2 °C 72.3 °F /  22.4 °C 29.92 in /  1013.1 hPa WSW 2.1 mph /  3.4 km/h 5.0 mph /  8 km/h 95 % 0.00 in /  0 mm
20:15 73.8 °F /  23.2 °C 72.3 °F /  22.4 °C 29.92 in /  1013.1 hPa WSW 0.2 mph /  0.3 km/h 2.3 mph /  3.7 km/h 95 % 0.00 in /  0 mm
20:20 73.8 °F /  23.2 °C 72.3 °F /  22.4 °C 29.92 in /  1013.1 hPa SW 0.7 mph /  1.1 km/h 3.5 mph /  5.6 km/h 95 % 0.00 in /  0 mm
20:25 73.7 °F /  23.2 °C 72.2 °F /  22.3 °C 29.91 in /  1012.8 hPa SW 0.6 mph /  1 km/h 3.5 mph /  5.6 km/h 95 % 0.00 in /  0 mm
20:30 73.8 °F /  23.2 °C 72.3 °F /  22.4 °C 29.92 in /  1013.1 hPa SW 1.8 mph /  2.9 km/h 5.8 mph /  9.3 km/h 95 % 0.00 in /  0 mm
20:35 73.8 °F /  23.2 °C 72.6 °F /  22.6 °C 29.92 in /  1013.1 hPa SW 0.2 mph /  0.3 km/h 2.3 mph /  3.7 km/h 96 % 0.00 in /  0 mm
20:40 73.8 °F /  23.2 °C 72.6 °F /  22.6 °C 29.92 in /  1013.1 hPa SSW 1.7 mph /  2.7 km/h 3.5 mph /  5.6 km/h 96 % 0.00 in /  0 mm
20:45 73.8 °F /  23.2 °C 72.6 °F /  22.6 °C 29.92 in /  1013.1 hPa WSW 1.5 mph /  2.4 km/h 4.0 mph /  6.4 km/h 96 % 0.00 in /  0 mm
20:50 73.8 °F /  23.2 °C 72.6 °F /  22.6 °C 29.92 in /  1013.1 hPa SSW 2.2 mph /  3.5 km/h 3.0 mph /  4.8 km/h 96 % 0.00 in /  0 mm
20:55 73.8 °F /  23.2 °C 72.6 °F /  22.6 °C 29.92 in /  1013.1 hPa SE 0.5 mph /  0.8 km/h 3.5 mph /  5.6 km/h 96 % 0.00 in /  0 mm
21:00 73.9 °F /  23.3 °C 72.7 °F /  22.6 °C 29.92 in /  1013.1 hPa SW 0.5 mph /  0.8 km/h 3.5 mph /  5.6 km/h 96 % 0.00 in /  0 mm
21:05 73.9 °F /  23.3 °C 72.7 °F /  22.6 °C 29.93 in /  1013.4 hPa SSW 0.5 mph /  0.8 km/h   96 % 0.00 in /  0 mm
21:15 73.9 °F /  23.3 °C 72.7 °F /  22.6 °C 29.93 in /  1013.4 hPa South 2.6 mph /  4.2 km/h 5.0 mph /  8 km/h 96 % 0.00 in /  0 mm
21:20 73.9 °F /  23.3 °C 72.7 °F /  22.6 °C 29.93 in /  1013.4 hPa WSW 1.5 mph /  2.4 km/h 3.5 mph /  5.6 km/h 96 % 0.00 in /  0 mm
21:25 73.9 °F /  23.3 °C 72.7 °F /  22.6 °C 29.93 in /  1013.4 hPa WSW 0.9 mph /  1.4 km/h 3.5 mph /  5.6 km/h 96 % 0.00 in /  0 mm
21:30 73.9 °F /  23.3 °C 72.7 °F /  22.6 °C 29.92 in /  1013.1 hPa WSW 0.4 mph /  0.6 km/h 4.6 mph /  7.4 km/h 96 % 0.00 in /  0 mm
21:35 73.9 °F /  23.3 °C 72.7 °F /  22.6 °C 29.93 in /  1013.4 hPa SW 1.3 mph /  2.1 km/h 3.5 mph /  5.6 km/h 96 % 0.00 in /  0 mm
21:41 74.0 °F /  23.3 °C 72.8 °F /  22.7 °C 29.93 in /  1013.4 hPa Calm   4.0 mph /  6.4 km/h 96 % 0.00 in /  0 mm
21:42 74.0 °F /  23.3 °C 72.8 °F /  22.7 °C 29.93 in /  1013.4 hPa WSW 0.8 mph /  1.3 km/h 3.0 mph /  4.8 km/h 96 % 0.00 in /  0 mm
21:47 74.0 °F /  23.3 °C 72.8 °F /  22.7 °C 29.93 in /  1013.4 hPa SSW 1.9 mph /  3.1 km/h 3.5 mph /  5.6 km/h 96 % 0.00 in /  0 mm
21:52 74.0 °F /  23.3 °C 72.8 °F /  22.7 °C 29.93 in /  1013.4 hPa SW 0.5 mph /  0.8 km/h 2.3 mph /  3.7 km/h 96 % 0.00 in /  0 mm
22:02 74.1 °F /  23.4 °C 72.9 °F /  22.7 °C 29.93 in /  1013.4 hPa WSW 0.2 mph /  0.3 km/h 1.2 mph /  1.9 km/h 96 % 0.00 in /  0 mm
22:07 74.1 °F /  23.4 °C 72.9 °F /  22.7 °C 29.93 in /  1013.4 hPa SSW 1.1 mph /  1.8 km/h 3.5 mph /  5.6 km/h 96 % 0.00 in /  0 mm
22:12 74.1 °F /  23.4 °C 72.9 °F /  22.7 °C 29.93 in /  1013.4 hPa Calm     96 % 0.00 in /  0 mm
22:17 74.1 °F /  23.4 °C 72.9 °F /  22.7 °C 29.94 in /  1013.8 hPa Calm   1.2 mph /  1.9 km/h 96 % 0.00 in /  0 mm
22:22 74.1 °F /  23.4 °C 72.9 °F /  22.7 °C 29.94 in /  1013.8 hPa SW 1.2 mph /  1.9 km/h 3.5 mph /  5.6 km/h 96 % 0.00 in /  0 mm
22:27 74.1 °F /  23.4 °C 72.9 °F /  22.7 °C 29.93 in /  1013.4 hPa SW 0.4 mph /  0.6 km/h 5.8 mph /  9.3 km/h 96 % 0.00 in /  0 mm
22:32 74.1 °F /  23.4 °C 72.9 °F /  22.7 °C 29.93 in /  1013.4 hPa Calm   1.0 mph /  1.6 km/h 96 % 0.00 in /  0 mm
22:37 74.1 °F /  23.4 °C 72.9 °F /  22.7 °C 29.94 in /  1013.8 hPa SW 1.3 mph /  2.1 km/h 2.3 mph /  3.7 km/h 96 % 0.00 in /  0 mm
22:42 74.0 °F /  23.3 °C 72.8 °F /  22.7 °C 29.94 in /  1013.8 hPa Calm   1.2 mph /  1.9 km/h 96 % 0.00 in /  0 mm
22:47 74.0 °F /  23.3 °C 72.8 °F /  22.7 °C 29.94 in /  1013.8 hPa WSW 1.0 mph /  1.6 km/h 3.5 mph /  5.6 km/h 96 % 0.00 in /  0 mm
22:52 74.1 °F /  23.4 °C 72.9 °F /  22.7 °C 29.94 in /  1013.8 hPa SW 0.8 mph /  1.3 km/h 5.8 mph /  9.3 km/h 96 % 0.00 in /  0 mm
22:57 74.1 °F /  23.4 °C 72.9 °F /  22.7 °C 29.94 in /  1013.8 hPa SW 0.1 mph /  0.2 km/h 2.3 mph /  3.7 km/h 96 % 0.00 in /  0 mm
23:02 74.1 °F /  23.4 °C 72.9 °F /  22.7 °C 29.95 in /  1014.1 hPa Calm   2.3 mph /  3.7 km/h 96 % 0.00 in /  0 mm
23:07 74.0 °F /  23.3 °C 72.8 °F /  22.7 °C 29.95 in /  1014.1 hPa Calm   1.2 mph /  1.9 km/h 96 % 0.00 in /  0 mm
23:14 74.0 °F /  23.3 °C 72.5 °F /  22.5 °C 29.95 in /  1014.1 hPa Calm   1.2 mph /  1.9 km/h 95 % 0.00 in /  0 mm
23:19 74.0 °F /  23.3 °C 72.5 °F /  22.5 °C 29.95 in /  1014.1 hPa Calm     95 % 0.00 in /  0 mm
23:22 74.0 °F /  23.3 °C 72.5 °F /  22.5 °C 29.83 in /  1010 hPa Calm   1.2 mph /  1.9 km/h 95 % 0.00 in /  0 mm
23:24 74.0 °F /  23.3 °C 72.5 °F /  22.5 °C 29.94 in /  1013.8 hPa SW 0.7 mph /  1.1 km/h 2.3 mph /  3.7 km/h 95 % 0.00 in /  0 mm
23:25 74.0 °F /  23.3 °C 72.5 °F /  22.5 °C 29.82 in /  1009.7 hPa SW 0.1 mph /  0.2 km/h 1.2 mph /  1.9 km/h 95 % 0.00 in /  0 mm
23:34 73.9 °F /  23.3 °C 72.4 °F /  22.4 °C 29.94 in /  1013.8 hPa Calm     95 % 0.00 in /  0 mm
23:37 73.9 °F /  23.3 °C 72.4 °F /  22.4 °C 29.94 in /  1013.8 hPa SW 0.2 mph /  0.3 km/h 1.2 mph /  1.9 km/h 95 % 0.00 in /  0 mm
23:42 73.9 °F /  23.3 °C 72.4 °F /  22.4 °C 29.94 in /  1013.8 hPa Calm   1.2 mph /  1.9 km/h 95 % 0.00 in /  0 mm
23:43 73.9 °F /  23.3 °C 72.4 °F /  22.4 °C 29.94 in /  1013.8 hPa Calm   1.2 mph /  1.9 km/h 95 % 0.00 in /  0 mm
23:48 73.9 °F /  23.3 °C 72.4 °F /  22.4 °C 29.94 in /  1013.8 hPa Calm     95 % 0.00 in /  0 mm
23:53 73.9 °F /  23.3 °C 72.4 °F /  22.4 °C 29.94 in /  1013.8 hPa Calm     95 % 0.00 in /  0 mm
23:58 73.8 °F /  23.2 °C 72.3 °F /  22.4 °C 29.94 in /  1013.8 hPa Calm   1.2 mph /  1.9 km/h 95 % 0.00 in /  0 mm
Crab Meadow Weather
Compliments of Weather Underground - 3 mb

Script developed by  Jim McMurry - jmcmurry@mwt.net Adapted for the template by  Wim van der Kuil - Leuven-Template.eu

Weather Terms: Winter Storms - These are weather hazards associated with freezing or frozen precipitation (freezing rain, sleet, snow) or combined effects of winter precipitation and strong winds.